sensor_id;sensor_type;location;lat;lon;timestamp;pressure;altitude;pressure_sealevel;temperature
4944;BMP280;2487;52.224;11.006;2022-08-19T00:01:37;51425.00;;;-142.39
4944;BMP280;2487;52.224;11.006;2022-08-19T00:04:05;51457.38;;;-142.39
4944;BMP280;2487;52.224;11.006;2022-08-19T00:06:31;51453.34;;;-142.39
4944;BMP280;2487;52.224;11.006;2022-08-19T00:08:58;51467.50;;;-142.39
4944;BMP280;2487;52.224;11.006;2022-08-19T00:11:26;51467.50;;;-142.39
4944;BMP280;2487;52.224;11.006;2022-08-19T00:13:54;51449.28;;;-142.39
4944;BMP280;2487;52.224;11.006;2022-08-19T00:16:20;51439.16;;;-142.39
4944;BMP280;2487;52.224;11.006;2022-08-19T00:18:47;51443.22;;;-142.39
4944;BMP280;2487;52.224;11.006;2022-08-19T00:21:13;51429.06;;;-142.39
4944;BMP280;2487;52.224;11.006;2022-08-19T00:23:40;51457.38;;;-142.39
4944;BMP280;2487;52.224;11.006;2022-08-19T00:26:06;51431.06;;;-142.39
4944;BMP280;2487;52.224;11.006;2022-08-19T00:28:32;51418.94;;;-142.39
4944;BMP280;2487;52.224;11.006;2022-08-19T00:30:59;51449.28;;;-142.39
4944;BMP280;2487;52.224;11.006;2022-08-19T00:33:25;51443.22;;;-142.39
4944;BMP280;2487;52.224;11.006;2022-08-19T00:35:51;51427.03;;;-142.39
4944;BMP280;2487;52.224;11.006;2022-08-19T00:38:17;51441.19;;;-142.39
4944;BMP280;2487;52.224;11.006;2022-08-19T00:40:43;51429.06;;;-142.39
4944;BMP280;2487;52.224;11.006;2022-08-19T00:43:12;51457.38;;;-142.39
4944;BMP280;2487;52.224;11.006;2022-08-19T00:45:41;51433.09;;;-142.39
4944;BMP280;2487;52.224;11.006;2022-08-19T00:48:11;51443.22;;;-142.39
4944;BMP280;2487;52.224;11.006;2022-08-19T00:50:39;51433.09;;;-142.39
4944;BMP280;2487;52.224;11.006;2022-08-19T00:53:06;51439.16;;;-142.39
4944;BMP280;2487;52.224;11.006;2022-08-19T00:55:33;51406.78;;;-142.39
4944;BMP280;2487;52.224;11.006;2022-08-19T00:58:04;51437.16;;;-142.39
4944;BMP280;2487;52.224;11.006;2022-08-19T01:00:33;51449.28;;;-142.39
4944;BMP280;2487;52.224;11.006;2022-08-19T01:03:11;51418.94;;;-142.39
4944;BMP280;2487;52.224;11.006;2022-08-19T01:05:38;51469.53;;;-142.39
4944;BMP280;2487;52.224;11.006;2022-08-19T01:08:06;51463.44;;;-142.39
4944;BMP280;2487;52.224;11.006;2022-08-19T01:10:37;51445.25;;;-142.39
4944;BMP280;2487;52.224;11.006;2022-08-19T01:13:04;51443.22;;;-142.39
4944;BMP280;2487;52.224;11.006;2022-08-19T01:15:42;51477.63;;;-142.39
4944;BMP280;2487;52.224;11.006;2022-08-19T01:18:11;51406.78;;;-142.39
4944;BMP280;2487;52.224;11.006;2022-08-19T01:20:38;51475.59;;;-142.39
4944;BMP280;2487;52.224;11.006;2022-08-19T01:23:07;51469.53;;;-142.39
4944;BMP280;2487;52.224;11.006;2022-08-19T01:25:49;51408.81;;;-142.39
4944;BMP280;2487;52.224;11.006;2022-08-19T01:28:21;51408.81;;;-142.39
4944;BMP280;2487;52.224;11.006;2022-08-19T01:30:47;51422.97;;;-142.39
4944;BMP280;2487;52.224;11.006;2022-08-19T01:33:13;51465.47;;;-142.39
4944;BMP280;2487;52.224;11.006;2022-08-19T01:35:41;51439.16;;;-142.39
4944;BMP280;2487;52.224;11.006;2022-08-19T01:38:18;51431.06;;;-142.39
4944;BMP280;2487;52.224;11.006;2022-08-19T01:40:44;51459.41;;;-142.39
4944;BMP280;2487;52.224;11.006;2022-08-19T01:43:10;51437.16;;;-142.39
4944;BMP280;2487;52.224;11.006;2022-08-19T01:45:36;51453.34;;;-142.39
4944;BMP280;2487;52.224;11.006;2022-08-19T01:48:04;51427.03;;;-142.39
4944;BMP280;2487;52.224;11.006;2022-08-19T01:50:31;51443.22;;;-142.39
4944;BMP280;2487;52.224;11.006;2022-08-19T01:52:58;51447.25;;;-142.39
4944;BMP280;2487;52.224;11.006;2022-08-19T01:55:25;51449.28;;;-142.39
4944;BMP280;2487;52.224;11.006;2022-08-19T01:57:55;51445.25;;;-142.39
4944;BMP280;2487;52.224;11.006;2022-08-19T02:00:25;51457.38;;;-142.39
4944;BMP280;2487;52.224;11.006;2022-08-19T02:02:51;51437.16;;;-142.39
4944;BMP280;2487;52.224;11.006;2022-08-19T02:05:17;51473.56;;;-142.39
4944;BMP280;2487;52.224;11.006;2022-08-19T02:07:44;51459.41;;;-142.39
4944;BMP280;2487;52.224;11.006;2022-08-19T02:10:14;51441.19;;;-142.39
4944;BMP280;2487;52.224;11.006;2022-08-19T02:12:41;51479.63;;;-142.39
4944;BMP280;2487;52.224;11.006;2022-08-19T02:15:07;51489.75;;;-142.39
4944;BMP280;2487;52.224;11.006;2022-08-19T02:17:33;51422.97;;;-142.39
4944;BMP280;2487;52.224;11.006;2022-08-19T02:19:59;51433.09;;;-142.39
4944;BMP280;2487;52.224;11.006;2022-08-19T02:22:25;51471.53;;;-142.39
4944;BMP280;2487;52.224;11.006;2022-08-19T02:24:52;51461.44;;;-142.39
4944;BMP280;2487;52.224;11.006;2022-08-19T02:27:18;51467.50;;;-142.39
4944;BMP280;2487;52.224;11.006;2022-08-19T02:29:46;51461.44;;;-142.39
4944;BMP280;2487;52.224;11.006;2022-08-19T02:32:12;51463.44;;;-142.39
4944;BMP280;2487;52.224;11.006;2022-08-19T02:34:39;51461.44;;;-142.39
4944;BMP280;2487;52.224;11.006;2022-08-19T02:37:04;51445.25;;;-142.39
4944;BMP280;2487;52.224;11.006;2022-08-19T02:39:30;51439.16;;;-142.39
4944;BMP280;2487;52.224;11.006;2022-08-19T02:41:56;51453.34;;;-142.39
4944;BMP280;2487;52.224;11.006;2022-08-19T02:44:23;51433.09;;;-142.39
4944;BMP280;2487;52.224;11.006;2022-08-19T02:46:49;51457.38;;;-142.39
4944;BMP280;2487;52.224;11.006;2022-08-19T02:49:15;51429.06;;;-142.39
4944;BMP280;2487;52.224;11.006;2022-08-19T02:51:43;51443.22;;;-142.39
4944;BMP280;2487;52.224;11.006;2022-08-19T02:54:10;51493.81;;;-142.39
4944;BMP280;2487;52.224;11.006;2022-08-19T02:56:39;51425.00;;;-142.39
4944;BMP280;2487;52.224;11.006;2022-08-19T02:59:05;51467.50;;;-142.39
4944;BMP280;2487;52.224;11.006;2022-08-19T03:01:36;51437.16;;;-142.39
4944;BMP280;2487;52.224;11.006;2022-08-19T03:04:05;51447.25;;;-142.39
4944;BMP280;2487;52.224;11.006;2022-08-19T03:06:32;51483.69;;;-142.39
4944;BMP280;2487;52.224;11.006;2022-08-19T03:08:57;51425.00;;;-142.39
4944;BMP280;2487;52.224;11.006;2022-08-19T03:11:26;51453.34;;;-142.39
4944;BMP280;2487;52.224;11.006;2022-08-19T03:13:53;51481.66;;;-142.39
4944;BMP280;2487;52.224;11.006;2022-08-19T03:16:24;51465.47;;;-142.39
4944;BMP280;2487;52.224;11.006;2022-08-19T03:18:51;51463.44;;;-142.39
4944;BMP280;2487;52.224;11.006;2022-08-19T03:21:23;51483.69;;;-142.39
4944;BMP280;2487;52.224;11.006;2022-08-19T03:23:50;51469.53;;;-142.39
4944;BMP280;2487;52.224;11.006;2022-08-19T03:26:16;51516.06;;;-142.39
4944;BMP280;2487;52.224;11.006;2022-08-19T03:28:43;51469.53;;;-142.39
4944;BMP280;2487;52.224;11.006;2022-08-19T03:31:13;51465.47;;;-142.39
4944;BMP280;2487;52.224;11.006;2022-08-19T03:33:39;51449.28;;;-142.39
4944;BMP280;2487;52.224;11.006;2022-08-19T03:36:10;51469.53;;;-142.39
4944;BMP280;2487;52.224;11.006;2022-08-19T03:38:38;51465.47;;;-142.39
4944;BMP280;2487;52.224;11.006;2022-08-19T03:41:17;51487.75;;;-142.39
4944;BMP280;2487;52.224;11.006;2022-08-19T03:43:43;51467.50;;;-142.39
4944;BMP280;2487;52.224;11.006;2022-08-19T03:46:14;51485.72;;;-142.39
4944;BMP280;2487;52.224;11.006;2022-08-19T03:48:41;51433.09;;;-142.39
4944;BMP280;2487;52.224;11.006;2022-08-19T03:51:16;51485.72;;;-142.39
4944;BMP280;2487;52.224;11.006;2022-08-19T03:53:42;51493.81;;;-142.39
4944;BMP280;2487;52.224;11.006;2022-08-19T03:56:09;51465.47;;;-142.39
4944;BMP280;2487;52.224;11.006;2022-08-19T03:58:35;51487.75;;;-142.39
4944;BMP280;2487;52.224;11.006;2022-08-19T04:01:17;51497.84;;;-142.39
4944;BMP280;2487;52.224;11.006;2022-08-19T04:03:43;51479.63;;;-142.39
4944;BMP280;2487;52.224;11.006;2022-08-19T04:06:13;51475.59;;;-142.39
4944;BMP280;2487;52.224;11.006;2022-08-19T04:08:44;51459.41;;;-142.39
4944;BMP280;2487;52.224;11.006;2022-08-19T04:11:16;51491.78;;;-142.39
4944;BMP280;2487;52.224;11.006;2022-08-19T04:13:42;51463.44;;;-142.39
4944;BMP280;2487;52.224;11.006;2022-08-19T04:16:10;51485.72;;;-142.39
4944;BMP280;2487;52.224;11.006;2022-08-19T04:18:37;51473.56;;;-142.39
4944;BMP280;2487;52.224;11.006;2022-08-19T04:21:04;51499.88;;;-142.39
4944;BMP280;2487;52.224;11.006;2022-08-19T04:23:31;51491.78;;;-142.39
4944;BMP280;2487;52.224;11.006;2022-08-19T04:25:57;51465.47;;;-142.39
4944;BMP280;2487;52.224;11.006;2022-08-19T04:28:23;51493.81;;;-142.39
4944;BMP280;2487;52.224;11.006;2022-08-19T04:30:53;51477.63;;;-142.39
4944;BMP280;2487;52.224;11.006;2022-08-19T04:33:22;51467.50;;;-142.39
4944;BMP280;2487;52.224;11.006;2022-08-19T04:35:51;51449.28;;;-142.39
4944;BMP280;2487;52.224;11.006;2022-08-19T04:38:20;51465.47;;;-142.39
4944;BMP280;2487;52.224;11.006;2022-08-19T04:40:49;51485.72;;;-142.39
4944;BMP280;2487;52.224;11.006;2022-08-19T04:43:35;51520.13;;;-142.39
4944;BMP280;2487;52.224;11.006;2022-08-19T04:46:06;51497.84;;;-142.39
4944;BMP280;2487;52.224;11.006;2022-08-19T04:48:34;51481.66;;;-142.39
4944;BMP280;2487;52.224;11.006;2022-08-19T04:50:59;51463.44;;;-142.39
4944;BMP280;2487;52.224;11.006;2022-08-19T04:53:30;51516.06;;;-142.39
4944;BMP280;2487;52.224;11.006;2022-08-19T04:55:57;51489.75;;;-142.39
4944;BMP280;2487;52.224;11.006;2022-08-19T04:58:24;51469.53;;;-142.39
4944;BMP280;2487;52.224;11.006;2022-08-19T05:00:51;51457.38;;;-142.39
4944;BMP280;2487;52.224;11.006;2022-08-19T05:03:17;51483.69;;;-142.39
4944;BMP280;2487;52.224;11.006;2022-08-19T05:05:47;51483.69;;;-142.39
4944;BMP280;2487;52.224;11.006;2022-08-19T05:08:19;51471.53;;;-142.39
4944;BMP280;2487;52.224;11.006;2022-08-19T05:10:47;51495.81;;;-142.39
4944;BMP280;2487;52.224;11.006;2022-08-19T05:13:13;51467.50;;;-142.39
4944;BMP280;2487;52.224;11.006;2022-08-19T05:15:40;51485.72;;;-142.39
4944;BMP280;2487;52.224;11.006;2022-08-19T05:18:06;51485.72;;;-142.39
4944;BMP280;2487;52.224;11.006;2022-08-19T05:20:50;51497.84;;;-142.39
4944;BMP280;2487;52.224;11.006;2022-08-19T05:23:35;51455.34;;;-142.39
4944;BMP280;2487;52.224;11.006;2022-08-19T05:26:00;51489.75;;;-142.39
4944;BMP280;2487;52.224;11.006;2022-08-19T05:28:26;51495.81;;;-142.39
4944;BMP280;2487;52.224;11.006;2022-08-19T05:33:21;51475.59;;;-142.39
4944;BMP280;2487;52.224;11.006;2022-08-19T05:35:47;51483.69;;;-142.39
4944;BMP280;2487;52.224;11.006;2022-08-19T05:38:18;51475.59;;;-142.39
4944;BMP280;2487;52.224;11.006;2022-08-19T05:40:44;51463.44;;;-142.39
4944;BMP280;2487;52.224;11.006;2022-08-19T05:43:14;51469.53;;;-142.39
4944;BMP280;2487;52.224;11.006;2022-08-19T05:45:43;51459.41;;;-142.39
4944;BMP280;2487;52.224;11.006;2022-08-19T05:48:10;51487.75;;;-142.39
4944;BMP280;2487;52.224;11.006;2022-08-19T05:50:38;51461.44;;;-142.39
4944;BMP280;2487;52.224;11.006;2022-08-19T05:53:04;51491.78;;;-142.39
4944;BMP280;2487;52.224;11.006;2022-08-19T05:55:30;51493.81;;;-142.39
4944;BMP280;2487;52.224;11.006;2022-08-19T05:57:56;51518.09;;;-142.39
4944;BMP280;2487;52.224;11.006;2022-08-19T06:00:23;51491.78;;;-142.39
4944;BMP280;2487;52.224;11.006;2022-08-19T06:02:49;51499.88;;;-142.39
4944;BMP280;2487;52.224;11.006;2022-08-19T06:05:14;51491.78;;;-142.39
4944;BMP280;2487;52.224;11.006;2022-08-19T06:07:40;51479.63;;;-142.39
4944;BMP280;2487;52.224;11.006;2022-08-19T06:10:08;51497.84;;;-142.39
4944;BMP280;2487;52.224;11.006;2022-08-19T06:12:35;51477.63;;;-142.39
4944;BMP280;2487;52.224;11.006;2022-08-19T06:15:10;51439.16;;;-142.39
4944;BMP280;2487;52.224;11.006;2022-08-19T06:17:37;51465.47;;;-142.39
4944;BMP280;2487;52.224;11.006;2022-08-19T06:20:08;51491.78;;;-142.39
4944;BMP280;2487;52.224;11.006;2022-08-19T06:22:42;51493.81;;;-142.39
4944;BMP280;2487;52.224;11.006;2022-08-19T06:25:09;51505.94;;;-142.39
4944;BMP280;2487;52.224;11.006;2022-08-19T06:27:35;51467.50;;;-142.39
4944;BMP280;2487;52.224;11.006;2022-08-19T06:30:03;51463.44;;;-142.39
4944;BMP280;2487;52.224;11.006;2022-08-19T06:32:28;51493.81;;;-142.39
4944;BMP280;2487;52.224;11.006;2022-08-19T06:34:54;51493.81;;;-142.39
4944;BMP280;2487;52.224;11.006;2022-08-19T06:37:20;51467.50;;;-142.39
4944;BMP280;2487;52.224;11.006;2022-08-19T06:39:47;51491.78;;;-142.39
4944;BMP280;2487;52.224;11.006;2022-08-19T06:42:13;51514.03;;;-142.39
4944;BMP280;2487;52.224;11.006;2022-08-19T06:44:43;51481.66;;;-142.39
4944;BMP280;2487;52.224;11.006;2022-08-19T06:47:12;51510.00;;;-142.39
4944;BMP280;2487;52.224;11.006;2022-08-19T06:49:38;51477.63;;;-142.39
4944;BMP280;2487;52.224;11.006;2022-08-19T06:52:05;51471.53;;;-142.39
4944;BMP280;2487;52.224;11.006;2022-08-19T06:54:31;51497.84;;;-142.39
4944;BMP280;2487;52.224;11.006;2022-08-19T06:56:58;51512.03;;;-142.39
4944;BMP280;2487;52.224;11.006;2022-08-19T06:59:28;51489.75;;;-142.39
4944;BMP280;2487;52.224;11.006;2022-08-19T07:01:57;51469.53;;;-142.39
4944;BMP280;2487;52.224;11.006;2022-08-19T07:04:26;51453.34;;;-142.39
4944;BMP280;2487;52.224;11.006;2022-08-19T07:09:25;51495.81;;;-142.39
4944;BMP280;2487;52.224;11.006;2022-08-19T07:11:53;51495.81;;;-142.39
4944;BMP280;2487;52.224;11.006;2022-08-19T07:14:22;51510.00;;;-142.39
4944;BMP280;2487;52.224;11.006;2022-08-19T07:16:49;51485.72;;;-142.39
4944;BMP280;2487;52.224;11.006;2022-08-19T07:19:18;51518.09;;;-142.39
4944;BMP280;2487;52.224;11.006;2022-08-19T07:21:46;51489.75;;;-142.39
4944;BMP280;2487;52.224;11.006;2022-08-19T07:24:12;51453.34;;;-142.39
4944;BMP280;2487;52.224;11.006;2022-08-19T07:26:42;51518.09;;;-142.39
4944;BMP280;2487;52.224;11.006;2022-08-19T07:29:08;51501.91;;;-142.39
4944;BMP280;2487;52.224;11.006;2022-08-19T07:31:34;51497.84;;;-142.39
4944;BMP280;2487;52.224;11.006;2022-08-19T07:34:03;51518.09;;;-142.39
4944;BMP280;2487;52.224;11.006;2022-08-19T07:36:34;51491.78;;;-142.39
4944;BMP280;2487;52.224;11.006;2022-08-19T07:39:03;51485.72;;;-142.39
4944;BMP280;2487;52.224;11.006;2022-08-19T07:41:30;51485.72;;;-142.39
4944;BMP280;2487;52.224;11.006;2022-08-19T07:44:00;51514.03;;;-142.39
4944;BMP280;2487;52.224;11.006;2022-08-19T07:46:33;51495.81;;;-142.39
4944;BMP280;2487;52.224;11.006;2022-08-19T07:49:00;51483.69;;;-142.39
4944;BMP280;2487;52.224;11.006;2022-08-19T07:51:26;51524.16;;;-142.39
4944;BMP280;2487;52.224;11.006;2022-08-19T07:53:53;51503.91;;;-142.39
4944;BMP280;2487;52.224;11.006;2022-08-19T07:56:21;51522.13;;;-142.39
4944;BMP280;2487;52.224;11.006;2022-08-19T07:58:50;51499.88;;;-142.39
4944;BMP280;2487;52.224;11.006;2022-08-19T08:01:20;51526.19;;;-142.39
4944;BMP280;2487;52.224;11.006;2022-08-19T08:03:47;51505.94;;;-142.39
4944;BMP280;2487;52.224;11.006;2022-08-19T08:06:31;51491.78;;;-142.39
4944;BMP280;2487;52.224;11.006;2022-08-19T08:09:19;51534.28;;;-142.39
4944;BMP280;2487;52.224;11.006;2022-08-19T08:11:52;51505.94;;;-142.39
4944;BMP280;2487;52.224;11.006;2022-08-19T08:14:24;51471.53;;;-142.39
4944;BMP280;2487;52.224;11.006;2022-08-19T08:16:50;51530.22;;;-142.39
4944;BMP280;2487;52.224;11.006;2022-08-19T08:19:18;51467.50;;;-142.39
4944;BMP280;2487;52.224;11.006;2022-08-19T08:21:44;51507.97;;;-142.39
4944;BMP280;2487;52.224;11.006;2022-08-19T08:24:10;51518.09;;;-142.39
4944;BMP280;2487;52.224;11.006;2022-08-19T08:26:37;51487.75;;;-142.39
4944;BMP280;2487;52.224;11.006;2022-08-19T08:29:03;51516.06;;;-142.39
4944;BMP280;2487;52.224;11.006;2022-08-19T08:31:28;51479.63;;;-142.39
4944;BMP280;2487;52.224;11.006;2022-08-19T08:33:54;51501.91;;;-142.39
4944;BMP280;2487;52.224;11.006;2022-08-19T08:36:20;51479.63;;;-142.39
4944;BMP280;2487;52.224;11.006;2022-08-19T08:38:46;51465.47;;;-142.39
4944;BMP280;2487;52.224;11.006;2022-08-19T08:41:28;51469.53;;;-142.39
4944;BMP280;2487;52.224;11.006;2022-08-19T08:43:56;51487.75;;;-142.39
4944;BMP280;2487;52.224;11.006;2022-08-19T08:46:40;51477.63;;;-142.39
4944;BMP280;2487;52.224;11.006;2022-08-19T08:52:33;51501.91;;;-142.39
4944;BMP280;2487;52.224;11.006;2022-08-19T08:55:07;51493.81;;;-142.39
4944;BMP280;2487;52.224;11.006;2022-08-19T09:03:25;51445.25;;;-142.39
4944;BMP280;2487;52.224;11.006;2022-08-19T09:10:58;51489.75;;;-142.39
4944;BMP280;2487;52.224;11.006;2022-08-19T09:16:00;51518.09;;;-142.39
4944;BMP280;2487;52.224;11.006;2022-08-19T09:18:50;51485.72;;;-142.39
4944;BMP280;2487;52.224;11.006;2022-08-19T09:21:19;51473.56;;;-142.39
4944;BMP280;2487;52.224;11.006;2022-08-19T09:23:46;51471.53;;;-142.39
4944;BMP280;2487;52.224;11.006;2022-08-19T09:26:17;51530.22;;;-142.39
4944;BMP280;2487;52.224;11.006;2022-08-19T09:28:50;51475.59;;;-142.39
4944;BMP280;2487;52.224;11.006;2022-08-19T09:31:25;51499.88;;;-142.39
4944;BMP280;2487;52.224;11.006;2022-08-19T09:33:52;51501.91;;;-142.39
4944;BMP280;2487;52.224;11.006;2022-08-19T09:36:20;51477.63;;;-142.39
4944;BMP280;2487;52.224;11.006;2022-08-19T09:38:48;51483.69;;;-142.39
4944;BMP280;2487;52.224;11.006;2022-08-19T09:41:17;51491.78;;;-142.39
4944;BMP280;2487;52.224;11.006;2022-08-19T09:43:48;51512.03;;;-142.39
4944;BMP280;2487;52.224;11.006;2022-08-19T09:46:18;51483.69;;;-142.39
4944;BMP280;2487;52.224;11.006;2022-08-19T09:48:44;51467.50;;;-142.39
4944;BMP280;2487;52.224;11.006;2022-08-19T09:51:15;51491.78;;;-142.39
4944;BMP280;2487;52.224;11.006;2022-08-19T09:53:46;51516.06;;;-142.39
4944;BMP280;2487;52.224;11.006;2022-08-19T09:56:13;51473.56;;;-142.39
4944;BMP280;2487;52.224;11.006;2022-08-19T09:58:40;51479.63;;;-142.39
4944;BMP280;2487;52.224;11.006;2022-08-19T10:01:07;51501.91;;;-142.39
4944;BMP280;2487;52.224;11.006;2022-08-19T10:03:34;51493.81;;;-142.39
4944;BMP280;2487;52.224;11.006;2022-08-19T10:06:02;51469.53;;;-142.39
4944;BMP280;2487;52.224;11.006;2022-08-19T10:08:32;51477.63;;;-142.39
4944;BMP280;2487;52.224;11.006;2022-08-19T10:10:59;51532.25;;;-142.39
4944;BMP280;2487;52.224;11.006;2022-08-19T10:13:27;51499.88;;;-142.39
4944;BMP280;2487;52.224;11.006;2022-08-19T10:16:01;51459.41;;;-142.39
4944;BMP280;2487;52.224;11.006;2022-08-19T10:18:27;51497.84;;;-142.39
4944;BMP280;2487;52.224;11.006;2022-08-19T10:21:04;51501.91;;;-142.39
4944;BMP280;2487;52.224;11.006;2022-08-19T10:23:33;51471.53;;;-142.39
4944;BMP280;2487;52.224;11.006;2022-08-19T10:26:03;51469.53;;;-142.39
4944;BMP280;2487;52.224;11.006;2022-08-19T10:28:29;51491.78;;;-142.39
4944;BMP280;2487;52.224;11.006;2022-08-19T10:30:55;51463.44;;;-142.39
4944;BMP280;2487;52.224;11.006;2022-08-19T10:33:21;51489.75;;;-142.39
4944;BMP280;2487;52.224;11.006;2022-08-19T10:35:47;51441.19;;;-142.39
4944;BMP280;2487;52.224;11.006;2022-08-19T10:38:12;51481.66;;;-142.39
4944;BMP280;2487;52.224;11.006;2022-08-19T10:40:38;51459.41;;;-142.39
4944;BMP280;2487;52.224;11.006;2022-08-19T10:43:04;51503.91;;;-142.39
4944;BMP280;2487;52.224;11.006;2022-08-19T10:45:30;51491.78;;;-142.39
4944;BMP280;2487;52.224;11.006;2022-08-19T10:47:55;51465.47;;;-142.39
4944;BMP280;2487;52.224;11.006;2022-08-19T10:50:21;51449.28;;;-142.39
4944;BMP280;2487;52.224;11.006;2022-08-19T10:53:07;51453.34;;;-142.39
4944;BMP280;2487;52.224;11.006;2022-08-19T10:55:36;51473.56;;;-142.39
4944;BMP280;2487;52.224;11.006;2022-08-19T10:58:22;51455.34;;;-142.39
4944;BMP280;2487;52.224;11.006;2022-08-19T11:00:55;51414.88;;;-142.39
4944;BMP280;2487;52.224;11.006;2022-08-19T11:03:22;51467.50;;;-142.39
4944;BMP280;2487;52.224;11.006;2022-08-19T11:06:03;51455.34;;;-142.39
4944;BMP280;2487;52.224;11.006;2022-08-19T11:08:29;51465.47;;;-142.39
4944;BMP280;2487;52.224;11.006;2022-08-19T11:10:58;51471.53;;;-142.39
4944;BMP280;2487;52.224;11.006;2022-08-19T11:13:31;51477.63;;;-142.39
4944;BMP280;2487;52.224;11.006;2022-08-19T11:16:01;51429.06;;;-142.39
4944;BMP280;2487;52.224;11.006;2022-08-19T11:18:27;51473.56;;;-142.39
4944;BMP280;2487;52.224;11.006;2022-08-19T11:23:40;51449.28;;;-142.39
4944;BMP280;2487;52.224;11.006;2022-08-19T11:26:06;51445.25;;;-142.39
4944;BMP280;2487;52.224;11.006;2022-08-19T11:28:32;51404.78;;;-142.39
4944;BMP280;2487;52.224;11.006;2022-08-19T11:30:57;51427.03;;;-142.39
4944;BMP280;2487;52.224;11.006;2022-08-19T11:33:23;51425.00;;;-142.39
4944;BMP280;2487;52.224;11.006;2022-08-19T11:35:52;51439.16;;;-142.39
4944;BMP280;2487;52.224;11.006;2022-08-19T11:38:18;51420.97;;;-142.39
4944;BMP280;2487;52.224;11.006;2022-08-19T11:40:44;51431.06;;;-142.39
4944;BMP280;2487;52.224;11.006;2022-08-19T11:43:10;51447.25;;;-142.39
4944;BMP280;2487;52.224;11.006;2022-08-19T11:45:36;51422.97;;;-142.39
4944;BMP280;2487;52.224;11.006;2022-08-19T11:48:02;51414.88;;;-142.39
4944;BMP280;2487;52.224;11.006;2022-08-19T11:50:28;51396.69;;;-142.39
4944;BMP280;2487;52.224;11.006;2022-08-19T11:52:55;51396.69;;;-142.39
4944;BMP280;2487;52.224;11.006;2022-08-19T11:55:22;51422.97;;;-142.39
4944;BMP280;2487;52.224;11.006;2022-08-19T11:57:48;51439.16;;;-142.39
4944;BMP280;2487;52.224;11.006;2022-08-19T12:00:14;51404.78;;;-142.39
4944;BMP280;2487;52.224;11.006;2022-08-19T12:02:40;51457.38;;;-142.39
4944;BMP280;2487;52.224;11.006;2022-08-19T12:05:07;51398.69;;;-142.39
4944;BMP280;2487;52.224;11.006;2022-08-19T12:07:33;51453.34;;;-142.39
4944;BMP280;2487;52.224;11.006;2022-08-19T12:10:00;51453.34;;;-142.39
4944;BMP280;2487;52.224;11.006;2022-08-19T12:12:26;51459.41;;;-142.39
4944;BMP280;2487;52.224;11.006;2022-08-19T12:14:53;51443.22;;;-142.39
4944;BMP280;2487;52.224;11.006;2022-08-19T12:17:27;51420.97;;;-142.39
4944;BMP280;2487;52.224;11.006;2022-08-19T12:19:53;51431.06;;;-142.39
4944;BMP280;2487;52.224;11.006;2022-08-19T12:22:19;51416.91;;;-142.39
4944;BMP280;2487;52.224;11.006;2022-08-19T12:24:47;51437.16;;;-142.39
4944;BMP280;2487;52.224;11.006;2022-08-19T12:27:13;51412.88;;;-142.39
4944;BMP280;2487;52.224;11.006;2022-08-19T12:29:39;51422.97;;;-142.39
4944;BMP280;2487;52.224;11.006;2022-08-19T12:32:05;51380.50;;;-142.39
4944;BMP280;2487;52.224;11.006;2022-08-19T12:34:31;51425.00;;;-142.39
4944;BMP280;2487;52.224;11.006;2022-08-19T12:37:00;51412.88;;;-142.39
4944;BMP280;2487;52.224;11.006;2022-08-19T12:39:26;51410.84;;;-142.39
4944;BMP280;2487;52.224;11.006;2022-08-19T12:41:52;51402.75;;;-142.39
4944;BMP280;2487;52.224;11.006;2022-08-19T12:44:18;51435.13;;;-142.39
4944;BMP280;2487;52.224;11.006;2022-08-19T12:46:44;51429.06;;;-142.39
4944;BMP280;2487;52.224;11.006;2022-08-19T12:49:10;51366.31;;;-142.39
4944;BMP280;2487;52.224;11.006;2022-08-19T12:51:36;51382.50;;;-142.39
4944;BMP280;2487;52.224;11.006;2022-08-19T12:54:02;51398.69;;;-142.39
4944;BMP280;2487;52.224;11.006;2022-08-19T12:56:29;51429.06;;;-142.39
4944;BMP280;2487;52.224;11.006;2022-08-19T12:58:56;51414.88;;;-142.39
4944;BMP280;2487;52.224;11.006;2022-08-19T13:01:22;51414.88;;;-142.39
4944;BMP280;2487;52.224;11.006;2022-08-19T13:03:47;51414.88;;;-142.39
4944;BMP280;2487;52.224;11.006;2022-08-19T13:06:13;51429.06;;;-142.39
4944;BMP280;2487;52.224;11.006;2022-08-19T13:08:40;51420.97;;;-142.39
4944;BMP280;2487;52.224;11.006;2022-08-19T13:11:12;51404.78;;;-142.39
4944;BMP280;2487;52.224;11.006;2022-08-19T13:13:42;51420.97;;;-142.39
4944;BMP280;2487;52.224;11.006;2022-08-19T13:16:09;51429.06;;;-142.39
4944;BMP280;2487;52.224;11.006;2022-08-19T13:18:37;51414.88;;;-142.39
4944;BMP280;2487;52.224;11.006;2022-08-19T13:21:04;51422.97;;;-142.39
4944;BMP280;2487;52.224;11.006;2022-08-19T13:23:32;51433.09;;;-142.39
4944;BMP280;2487;52.224;11.006;2022-08-19T13:25:59;51402.75;;;-142.39
4944;BMP280;2487;52.224;11.006;2022-08-19T13:28:25;51435.13;;;-142.39
4944;BMP280;2487;52.224;11.006;2022-08-19T13:30:51;51422.97;;;-142.39
4944;BMP280;2487;52.224;11.006;2022-08-19T13:33:36;51388.59;;;-142.39
4944;BMP280;2487;52.224;11.006;2022-08-19T13:36:01;51362.28;;;-142.39
4944;BMP280;2487;52.224;11.006;2022-08-19T13:38:27;51380.50;;;-142.39
4944;BMP280;2487;52.224;11.006;2022-08-19T13:40:54;51378.47;;;-142.39
4944;BMP280;2487;52.224;11.006;2022-08-19T13:43:22;51374.41;;;-142.39
4944;BMP280;2487;52.224;11.006;2022-08-19T13:45:53;51398.69;;;-142.39
4944;BMP280;2487;52.224;11.006;2022-08-19T13:48:22;51388.59;;;-142.39
4944;BMP280;2487;52.224;11.006;2022-08-19T13:50:48;51358.22;;;-142.39
4944;BMP280;2487;52.224;11.006;2022-08-19T13:53:15;51384.53;;;-142.39
4944;BMP280;2487;52.224;11.006;2022-08-19T13:55:42;51394.66;;;-142.39
4944;BMP280;2487;52.224;11.006;2022-08-19T13:58:09;51402.75;;;-142.39
4944;BMP280;2487;52.224;11.006;2022-08-19T14:00:41;51400.72;;;-142.39
4944;BMP280;2487;52.224;11.006;2022-08-19T14:03:08;51396.69;;;-142.39
4944;BMP280;2487;52.224;11.006;2022-08-19T14:05:34;51368.34;;;-142.39
4944;BMP280;2487;52.224;11.006;2022-08-19T14:08:00;51396.69;;;-142.39
4944;BMP280;2487;52.224;11.006;2022-08-19T14:10:27;51418.94;;;-142.39
4944;BMP280;2487;52.224;11.006;2022-08-19T14:12:58;51406.78;;;-142.39
4944;BMP280;2487;52.224;11.006;2022-08-19T14:15:25;51390.59;;;-142.39
4944;BMP280;2487;52.224;11.006;2022-08-19T14:17:51;51416.91;;;-142.39
4944;BMP280;2487;52.224;11.006;2022-08-19T14:20:17;51382.50;;;-142.39
4944;BMP280;2487;52.224;11.006;2022-08-19T14:22:44;51392.63;;;-142.39
4944;BMP280;2487;52.224;11.006;2022-08-19T14:25:15;51410.84;;;-142.39
4944;BMP280;2487;52.224;11.006;2022-08-19T14:27:42;51443.22;;;-142.39